Time;durP1;ratioP1;P1;durP2;ratioP2;P2;SDS_P1;SDS_P2;PMS_P1;PMS_P2;Temp;Humidity;BMP_temperature;BMP_pressure;BME280_temperature;BME280_humidity;BME280_pressure;Samples;Min_cycle;Max_cycle;Signal;HPM_P1;HPM_P2
2022/04/06 00:02:15;;;;;;;12.80;6.60;;;;;8.70;96883.80;;;;110653;1253;41293;-73
2022/04/06 00:04:45;;;;;;;12.50;6.30;;;;;8.70;96885.20;;;;110741;1252;40735;-72
2022/04/06 00:07:15;;;;;;;12.80;6.50;;;;;8.70;96890.80;;;;110922;1250;41176;-74
2022/04/06 00:09:45;;;;;;;11.60;5.80;;;;;8.70;96892.00;;;;110930;1251;41255;-72
2022/04/06 00:12:16;;;;;;;14.50;6.30;;;;;8.70;96893.00;;;;110935;1252;41394;-73
2022/04/06 00:14:46;;;;;;;14.50;6.00;;;;;8.70;96895.40;;;;110900;1253;41897;-73
2022/04/06 00:17:16;;;;;;;12.00;5.70;;;;;8.70;96896.20;;;;110705;1253;41268;-73
2022/04/06 00:19:46;;;;;;;16.50;8.20;;;;;8.70;96893.20;;;;110711;1253;41341;-73
2022/04/06 00:22:15;;;;;;;21.30;10.30;;;;;8.70;96888.40;;;;110876;1252;41317;-72
2022/04/06 00:24:45;;;;;;;19.60;10.10;;;;;8.70;96893.20;;;;110803;1252;41118;-73
2022/04/06 00:27:15;;;;;;;20.30;10.10;;;;;8.70;96890.20;;;;110912;1250;41538;-72
2022/04/06 00:29:45;;;;;;;20.00;8.70;;;;;8.66;96896.60;;;;110804;1250;41036;-71
2022/04/06 00:32:14;;;;;;;15.90;7.60;;;;;8.60;96899.80;;;;110692;1250;41878;-71
2022/04/06 00:37:31;;;;;;;13.20;6.20;;;;;8.60;96909.80;;;;110720;1251;41157;-72
2022/04/06 00:40:01;;;;;;;18.40;7.40;;;;;8.60;96908.60;;;;110868;1252;41154;-72
2022/04/06 00:42:30;;;;;;;18.00;8.40;;;;;8.60;96908.40;;;;110936;1249;41271;-73
2022/04/06 00:45:01;;;;;;;21.00;9.10;;;;;8.60;96908.60;;;;110674;1252;41499;-72
2022/04/06 00:47:31;;;;;;;16.90;7.10;;;;;8.60;96909.40;;;;110931;1250;41218;-73
2022/04/06 00:50:01;;;;;;;14.50;6.60;;;;;8.60;96904.80;;;;110727;1252;41260;-73
2022/04/06 00:52:31;;;;;;;14.40;6.30;;;;;8.60;96905.00;;;;110919;1251;42349;-73
2022/04/06 00:55:03;;;;;;;13.70;7.10;;;;;8.58;96898.00;;;;110725;1253;41527;-72
2022/04/06 00:57:33;;;;;;;16.60;7.20;;;;;8.50;96897.60;;;;110669;1250;41382;-73
2022/04/06 01:00:05;;;;;;;13.60;6.20;;;;;8.50;96894.20;;;;110897;1250;42379;-73
2022/04/06 01:02:36;;;;;;;14.40;6.30;;;;;8.50;96901.20;;;;110962;1251;41257;-72
2022/04/06 01:05:06;;;;;;;12.90;5.80;;;;;8.50;96896.40;;;;110803;1253;42585;-72
2022/04/06 01:07:36;;;;;;;13.20;6.20;;;;;8.50;96890.40;;;;110836;1251;41415;-72
2022/04/06 01:10:07;;;;;;;12.90;5.20;;;;;8.50;96887.60;;;;110841;1251;42237;-72
2022/04/06 01:12:38;;;;;;;13.40;5.50;;;;;8.50;96889.40;;;;110678;1253;41156;-72
2022/04/06 01:15:09;;;;;;;13.10;5.90;;;;;8.50;96888.40;;;;110671;1252;41565;-72
2022/04/06 01:17:39;;;;;;;11.80;5.60;;;;;8.50;96889.60;;;;110748;1252;41146;-72
2022/04/06 01:20:12;;;;;;;10.30;4.70;;;;;8.50;96893.40;;;;110946;1250;41363;-72
2022/04/06 01:22:41;;;;;;;10.50;5.30;;;;;8.50;96892.80;;;;110733;1252;41141;-73
2022/04/06 01:25:11;;;;;;;11.90;4.70;;;;;8.50;96900.20;;;;110688;1253;42214;-73
2022/04/06 01:27:41;;;;;;;11.70;4.80;;;;;8.50;96903.80;;;;110922;1250;41602;-72
2022/04/06 01:30:10;;;;;;;11.60;5.10;;;;;8.50;96901.00;;;;110686;1252;41200;-73
2022/04/06 01:32:41;;;;;;;11.30;4.80;;;;;8.54;96900.60;;;;110810;1251;41178;-73
2022/04/06 01:35:10;;;;;;;10.70;4.70;;;;;8.54;96907.80;;;;110742;1252;41263;-73
2022/04/06 01:37:39;;;;;;;11.40;5.20;;;;;8.50;96908.20;;;;110688;1252;41607;-72
2022/04/06 01:40:10;;;;;;;15.90;8.40;;;;;8.54;96906.80;;;;110661;1253;41154;-72
2022/04/06 01:42:39;;;;;;;21.00;8.20;;;;;8.58;96913.60;;;;110742;1252;41265;-73
2022/04/06 01:45:10;;;;;;;19.00;8.70;;;;;8.56;96911.60;;;;110772;1251;41737;-73
2022/04/06 01:47:40;;;;;;;17.00;8.10;;;;;8.54;96910.40;;;;110851;1253;41151;-73
2022/04/06 01:52:58;;;;;;;23.40;11.90;;;;;8.50;96925.40;;;;110774;1250;41840;-73
2022/04/06 01:55:27;;;;;;;24.30;11.90;;;;;8.40;96919.40;;;;110792;1251;42299;-71
2022/04/06 01:57:56;;;;;;;19.60;9.80;;;;;8.32;96922.00;;;;110796;1251;41966;-74
2022/04/06 02:00:27;;;;;;;22.10;12.10;;;;;8.30;96916.60;;;;110931;1251;41847;-74
2022/04/06 02:03:00;;;;;;;19.60;10.40;;;;;8.20;96920.40;;;;110982;1250;41380;-73
2022/04/06 02:05:34;;;;;;;17.00;8.50;;;;;8.10;96932.40;;;;110739;1252;41722;-73
2022/04/06 02:08:04;;;;;;;19.80;8.00;;;;;8.10;96926.60;;;;110759;1252;42510;-73
2022/04/06 02:10:34;;;;;;;19.90;8.80;;;;;8.10;96928.00;;;;110632;1251;41627;-73
2022/04/06 02:13:03;;;;;;;16.30;7.60;;;;;8.00;96932.80;;;;110705;1252;41161;-73
2022/04/06 02:15:33;;;;;;;14.00;6.70;;;;;8.00;96935.20;;;;110782;1251;41515;-73
2022/04/06 02:18:04;;;;;;;13.30;6.30;;;;;8.00;96934.00;;;;110716;1251;41595;-71
2022/04/06 02:20:34;;;;;;;15.80;7.10;;;;;8.00;96937.20;;;;110961;1250;41115;-73
2022/04/06 02:23:04;;;;;;;17.50;6.50;;;;;8.00;96942.60;;;;110658;1253;42015;-72
2022/04/06 02:25:34;;;;;;;12.30;5.70;;;;;8.00;96947.00;;;;110744;1252;41143;-73
2022/04/06 02:28:04;;;;;;;13.80;6.10;;;;;8.00;96941.60;;;;110707;1251;41596;-73
2022/04/06 02:30:33;;;;;;;14.50;6.30;;;;;8.06;96946.80;;;;110717;1252;41160;-72
2022/04/06 02:33:03;;;;;;;12.80;6.20;;;;;8.00;96944.80;;;;110789;1251;41246;-73
2022/04/06 02:35:32;;;;;;;12.30;5.20;;;;;8.00;96941.00;;;;110721;1252;41263;-73
2022/04/06 02:38:03;;;;;;;10.10;4.60;;;;;8.02;96945.60;;;;110725;1251;40910;-72
2022/04/06 02:40:33;;;;;;;11.30;4.90;;;;;8.08;96945.00;;;;110767;1250;41153;-73
2022/04/06 02:43:03;;;;;;;10.50;5.00;;;;;8.10;96946.40;;;;110915;1250;41150;-70
2022/04/06 02:45:33;;;;;;;10.90;4.90;;;;;8.10;96945.80;;;;110697;1252;41175;-72
2022/04/06 02:48:03;;;;;;;11.70;5.60;;;;;8.10;96947.40;;;;110655;1252;41188;-72
2022/04/06 02:50:32;;;;;;;13.30;5.20;;;;;8.10;96949.60;;;;110757;1251;41620;-72
2022/04/06 02:53:03;;;;;;;13.10;5.80;;;;;8.12;96947.80;;;;110703;1252;41271;-72
2022/04/06 02:55:32;;;;;;;10.40;4.80;;;;;8.16;96947.40;;;;110670;1254;41383;-71
2022/04/06 02:58:01;;;;;;;9.70;4.60;;;;;8.20;96950.60;;;;110632;1252;41596;-73
2022/04/06 03:00:32;;;;;;;10.80;5.20;;;;;8.20;96954.60;;;;110674;1252;42154;-73
2022/04/06 03:03:03;;;;;;;12.90;5.80;;;;;8.20;96944.40;;;;110566;1254;41159;-73
2022/04/06 03:05:33;;;;;;;13.50;5.80;;;;;8.22;96948.20;;;;110682;1253;42434;-72
2022/04/06 03:08:05;;;;;;;11.30;4.70;;;;;8.30;96953.00;;;;110473;1254;40763;-73
2022/04/06 03:10:35;;;;;;;12.80;5.50;;;;;8.30;96954.60;;;;110646;1252;41770;-72
2022/04/06 03:13:04;;;;;;;11.60;5.10;;;;;8.30;96944.40;;;;110835;1252;41385;-73
2022/04/06 03:15:34;;;;;;;10.70;4.60;;;;;8.30;96951.20;;;;110765;1252;41160;-72
2022/04/06 03:18:04;;;;;;;13.40;5.30;;;;;8.30;96950.20;;;;110741;1251;41343;-72
2022/04/06 03:20:34;;;;;;;14.30;5.40;;;;;8.30;96955.00;;;;110509;1252;41158;-72
2022/04/06 03:23:03;;;;;;;11.20;4.70;;;;;8.34;96953.40;;;;110497;1254;41558;-72
2022/04/06 03:25:35;;;;;;;11.80;4.90;;;;;8.34;96956.60;;;;110686;1252;41261;-71
2022/04/06 03:28:06;;;;;;;10.10;5.00;;;;;8.36;96957.40;;;;110808;1250;41365;-71
2022/04/06 03:30:36;;;;;;;13.50;5.20;;;;;8.38;96962.60;;;;110771;1252;41144;-72
2022/04/06 03:33:08;;;;;;;8.90;4.20;;;;;8.36;96963.60;;;;110792;1252;41162;-72
2022/04/06 03:35:38;;;;;;;9.70;4.60;;;;;8.40;96961.20;;;;110628;1252;41151;-72
2022/04/06 03:38:07;;;;;;;9.30;4.40;;;;;8.40;96963.80;;;;110680;1252;41194;-72
2022/04/06 03:40:38;;;;;;;10.50;4.50;;;;;8.40;96962.60;;;;110643;1253;41262;-71
2022/04/06 03:43:08;;;;;;;10.60;4.60;;;;;8.40;96968.40;;;;110766;1251;41144;-72
2022/04/06 03:45:37;;;;;;;13.00;5.20;;;;;8.40;96967.60;;;;110599;1253;41193;-72
2022/04/06 03:48:06;;;;;;;11.00;4.40;;;;;8.40;96972.40;;;;110586;1254;41259;-72
2022/04/06 03:50:35;;;;;;;10.60;5.00;;;;;8.40;96970.80;;;;110696;1253;41799;-72
2022/04/06 03:53:05;;;;;;;17.50;8.00;;;;;8.40;96968.60;;;;110551;1254;41682;-72
2022/04/06 03:55:35;;;;;;;14.70;6.90;;;;;8.40;96971.20;;;;110759;1253;41139;-72
2022/04/06 03:58:04;;;;;;;14.00;6.70;;;;;8.40;96973.20;;;;110512;1254;41630;-72
2022/04/06 04:00:34;;;;;;;14.20;6.60;;;;;8.40;96975.20;;;;110826;1252;41134;-72
2022/04/06 04:03:05;;;;;;;15.60;7.30;;;;;8.38;96972.00;;;;110592;1254;41509;-73
2022/04/06 04:05:35;;;;;;;;;;;;;8.32;96972.80;;;;110454;1254;41656;-72
2022/04/06 04:08:04;;;;;;;18.20;7.50;;;;;8.30;96970.00;;;;110511;1253;41228;-71
2022/04/06 04:10:34;;;;;;;14.50;6.40;;;;;8.30;96979.80;;;;110641;1253;41176;-72
2022/04/06 04:13:03;;;;;;;13.00;6.20;;;;;8.30;96982.60;;;;110752;1249;41196;-71
2022/04/06 04:15:32;;;;;;;13.70;5.30;;;;;8.30;96982.00;;;;110689;1252;41166;-71
2022/04/06 04:18:01;;;;;;;15.60;6.00;;;;;8.30;96985.60;;;;110593;1252;41732;-72
2022/04/06 04:20:30;;;;;;;11.50;4.80;;;;;8.30;96985.40;;;;110915;1251;41157;-72
2022/04/06 04:22:59;;;;;;;10.70;5.00;;;;;8.30;96984.00;;;;110760;1251;41600;-71
2022/04/06 04:25:28;;;;;;;9.40;4.30;;;;;8.30;96984.40;;;;110829;1252;41825;-71
2022/04/06 04:27:57;;;;;;;11.00;4.80;;;;;8.30;96989.60;;;;110731;1253;41265;-72
2022/04/06 04:30:26;;;;;;;10.00;4.20;;;;;8.30;96988.00;;;;110926;1251;41854;-71
2022/04/06 04:32:56;;;;;;;10.40;4.70;;;;;8.32;96995.00;;;;110855;1251;41288;-72
2022/04/06 04:35:24;;;;;;;9.60;4.30;;;;;8.40;97003.80;;;;110877;1250;41335;-72
2022/04/06 04:37:54;;;;;;;10.00;4.50;;;;;8.40;97002.60;;;;110722;1253;41191;-72
2022/04/06 04:40:23;;;;;;;10.80;4.60;;;;;8.40;97004.20;;;;110753;1252;41143;-72
2022/04/06 04:42:53;;;;;;;8.90;4.10;;;;;8.44;97006.60;;;;110668;1254;42098;-72
2022/04/06 04:45:22;;;;;;;9.80;4.40;;;;;8.50;97008.60;;;;110873;1251;41577;-72
2022/04/06 04:47:51;;;;;;;11.50;4.10;;;;;8.50;97019.20;;;;110753;1252;40748;-72
2022/04/06 04:50:20;;;;;;;10.60;4.40;;;;;8.56;97017.20;;;;110942;1250;41133;-72
2022/04/06 04:52:49;;;;;;;9.50;4.30;;;;;8.60;97017.80;;;;110931;1252;41169;-71
2022/04/06 04:55:18;;;;;;;9.70;4.00;;;;;8.62;97022.80;;;;110651;1252;41206;-72
2022/04/06 04:57:48;;;;;;;9.20;4.10;;;;;8.70;97027.80;;;;110781;1252;41724;-72
2022/04/06 05:00:17;;;;;;;9.50;3.80;;;;;8.72;97027.80;;;;110710;1252;41180;-72
2022/04/06 05:02:46;;;;;;;9.60;4.00;;;;;8.80;97028.40;;;;110667;1251;41363;-73
2022/04/06 05:05:15;;;;;;;8.50;3.90;;;;;8.86;97033.40;;;;110762;1252;41464;-72
2022/04/06 05:07:44;;;;;;;8.70;3.90;;;;;8.90;97038.80;;;;110794;1252;41608;-72
2022/04/06 05:10:13;;;;;;;9.40;4.30;;;;;9.00;97041.20;;;;110748;1252;41362;-71
2022/04/06 05:12:43;;;;;;;8.50;3.70;;;;;9.02;97046.20;;;;110737;1251;42637;-71
2022/04/06 05:15:13;;;;;;;9.40;4.30;;;;;9.10;97048.60;;;;110689;1254;40972;-71
2022/04/06 05:17:42;;;;;;;11.40;5.10;;;;;9.10;97046.20;;;;110734;1253;42185;-71
2022/04/06 05:20:11;;;;;;;12.60;5.50;;;;;9.20;97047.20;;;;110789;1253;41647;-72
2022/04/06 05:22:41;;;;;;;13.10;5.70;;;;;9.28;97053.00;;;;110908;1253;41799;-72
2022/04/06 05:25:10;;;;;;;15.10;7.40;;;;;9.30;97050.20;;;;110724;1254;41945;-72
2022/04/06 05:27:51;;;;;;;15.80;7.50;;;;;9.40;97056.40;;;;110754;1251;41637;-72
2022/04/06 05:30:23;;;;;;;14.10;6.60;;;;;9.40;97061.80;;;;110607;1253;41257;-71
2022/04/06 05:32:54;;;;;;;17.30;7.70;;;;;9.50;97057.80;;;;110910;1250;41346;-71
2022/04/06 05:35:24;;;;;;;;;;;;;9.50;97055.60;;;;110742;1252;41954;-71
2022/04/06 05:37:55;;;;;;;14.50;6.40;;;;;9.50;97056.40;;;;110740;1251;41457;-72
2022/04/06 05:40:25;;;;;;;15.00;6.00;;;;;9.60;97058.80;;;;110844;1253;41806;-72
2022/04/06 05:42:54;;;;;;;11.40;5.70;;;;;9.70;97065.80;;;;110898;1251;41277;-71
2022/04/06 05:45:23;;;;;;;12.40;6.10;;;;;9.80;97063.40;;;;110906;1253;41948;-71
2022/04/06 05:47:52;;;;;;;11.70;4.90;;;;;9.88;97060.20;;;;110746;1253;41142;-71
2022/04/06 05:50:21;;;;;;;10.50;4.60;;;;;9.90;97069.00;;;;110693;1253;41603;-71
2022/04/06 05:52:51;;;;;;;10.80;5.00;;;;;10.00;97068.80;;;;110688;1254;41258;-71
2022/04/06 05:55:20;;;;;;;12.90;6.10;;;;;10.10;97066.80;;;;110746;1253;41173;-71
2022/04/06 05:57:49;;;;;;;14.60;6.50;;;;;10.20;97073.80;;;;110782;1253;41599;-72
2022/04/06 06:00:18;;;;;;;12.90;6.60;;;;;10.30;97070.60;;;;110918;1251;41903;-71
2022/04/06 06:02:47;;;;;;;13.30;6.10;;;;;10.40;97064.00;;;;110860;1252;41142;-70
2022/04/06 06:05:16;;;;;;;12.70;5.40;;;;;10.48;97074.80;;;;110860;1251;41168;-72
2022/04/06 06:07:45;;;;;;;14.30;5.70;;;;;10.60;97080.20;;;;110673;1252;41151;-71
2022/04/06 06:10:14;;;;;;;13.00;5.70;;;;;10.70;97083.00;;;;110736;1254;41134;-72
2022/04/06 06:12:43;;;;;;;13.10;5.80;;;;;10.90;97081.40;;;;110714;1252;42388;-72
2022/04/06 06:15:12;;;;;;;11.20;4.90;;;;;11.00;97082.80;;;;110759;1251;42004;-71
2022/04/06 06:17:41;;;;;;;12.00;5.40;;;;;11.10;97078.00;;;;110717;1252;41795;-71
2022/04/06 06:20:11;;;;;;;12.90;5.40;;;;;11.20;97069.80;;;;110651;1254;41190;-71
2022/04/06 06:22:39;;;;;;;13.60;4.50;;;;;11.30;97072.20;;;;110687;1253;41362;-71
2022/04/06 06:25:09;;;;;;;11.90;5.40;;;;;11.44;97074.00;;;;110706;1254;42458;-72
2022/04/06 06:27:39;;;;;;;11.90;5.00;;;;;11.54;97072.00;;;;110427;1252;317200;-72
2022/04/06 06:30:12;;;;;;;13.00;5.70;;;;;11.68;97071.80;;;;110711;1254;41191;-71
2022/04/06 06:32:41;;;;;;;11.10;4.90;;;;;11.80;97076.60;;;;110776;1251;41191;-71
2022/04/06 06:35:10;;;;;;;9.90;4.70;;;;;11.90;97074.20;;;;110614;1253;41137;-72
2022/04/06 06:37:50;;;;;;;12.10;4.80;;;;;12.10;97072.80;;;;110678;1251;41148;-72
2022/04/06 06:40:22;;;;;;;10.10;4.90;;;;;12.28;97068.20;;;;110744;1251;41175;-72
2022/04/06 06:42:51;;;;;;;11.30;5.20;;;;;12.38;97063.80;;;;110748;1254;41464;-72
2022/04/06 06:45:20;;;;;;;10.70;4.80;;;;;12.58;97065.40;;;;110686;1254;41164;-72
2022/04/06 06:47:49;;;;;;;13.40;5.40;;;;;12.80;97062.40;;;;110731;1253;41168;-72
2022/04/06 06:50:19;;;;;;;10.50;4.50;;;;;12.98;97055.80;;;;110709;1251;41721;-72
2022/04/06 06:52:48;;;;;;;9.60;4.60;;;;;13.10;97063.00;;;;110652;1254;41153;-72
2022/04/06 06:55:18;;;;;;;11.70;4.20;;;;;13.20;97066.80;;;;110627;1252;41272;-73
2022/04/06 06:57:48;;;;;;;12.70;4.00;;;;;13.24;97064.40;;;;110649;1253;41154;-73
2022/04/06 07:00:18;;;;;;;12.40;3.90;;;;;13.40;97066.20;;;;110853;1251;41763;-72
2022/04/06 07:02:47;;;;;;;12.80;4.40;;;;;13.40;97065.80;;;;110827;1252;41904;-72
2022/04/06 07:05:17;;;;;;;8.60;3.80;;;;;13.40;97062.20;;;;110779;1251;41603;-73
2022/04/06 07:07:55;;;;;;;11.20;4.70;;;;;13.34;97063.80;;;;110711;1251;41261;-71
2022/04/06 07:10:25;;;;;;;10.40;4.30;;;;;13.40;97068.00;;;;110826;1251;42231;-71
2022/04/06 07:12:54;;;;;;;10.60;4.30;;;;;13.30;97067.60;;;;110773;1251;41164;-72
2022/04/06 07:15:24;;;;;;;10.60;4.50;;;;;13.32;97066.20;;;;110589;1253;41400;-72
2022/04/06 07:17:57;;;;;;;9.50;3.90;;;;;13.40;97070.00;;;;110696;1254;41378;-71
2022/04/06 07:20:29;;;;;;;9.10;3.80;;;;;13.50;97068.80;;;;110688;1254;41271;-72
2022/04/06 07:22:58;;;;;;;11.10;4.20;;;;;13.70;97062.80;;;;110757;1251;41184;-72
2022/04/06 07:25:27;;;;;;;9.90;4.30;;;;;13.90;97061.40;;;;110719;1253;41161;-71
2022/04/06 07:27:56;;;;;;;8.90;3.90;;;;;13.96;97061.00;;;;110610;1252;42391;-72
2022/04/06 07:30:25;;;;;;;10.60;3.90;;;;;14.10;97062.00;;;;110856;1251;41212;-71
2022/04/06 07:32:54;;;;;;;9.00;3.80;;;;;14.40;97069.40;;;;110731;1251;41194;-72
2022/04/06 07:35:24;;;;;;;9.70;4.30;;;;;14.60;97060.40;;;;110787;1251;41159;-71
2022/04/06 07:37:53;;;;;;;10.00;4.50;;;;;14.74;97066.00;;;;110712;1251;41771;-71
2022/04/06 07:40:23;;;;;;;13.10;4.40;;;;;14.80;97068.60;;;;110694;1251;41157;-71
2022/04/06 07:42:52;;;;;;;11.60;4.70;;;;;14.80;97063.20;;;;110886;1251;41160;-71
2022/04/06 07:45:24;;;;;;;9.10;4.00;;;;;14.90;97063.60;;;;110745;1252;41368;-70
2022/04/06 07:47:54;;;;;;;11.00;4.60;;;;;15.10;97066.60;;;;110729;1251;41405;-72
2022/04/06 07:50:23;;;;;;;9.10;3.70;;;;;15.30;97072.40;;;;110815;1251;41162;-71
2022/04/06 07:52:53;;;;;;;10.90;4.60;;;;;15.46;97068.80;;;;110856;1251;41966;-71
2022/04/06 07:55:22;;;;;;;11.30;4.80;;;;;15.62;97069.80;;;;110741;1251;42478;-71
2022/04/06 07:57:50;;;;;;;11.20;4.30;;;;;15.80;97075.40;;;;110531;1253;42024;-71
2022/04/06 08:00:20;;;;;;;11.00;5.10;;;;;15.70;97079.80;;;;110791;1251;41164;-73
2022/04/06 08:02:50;;;;;;;13.60;4.30;;;;;15.74;97083.20;;;;110658;1252;41141;-70
2022/04/06 08:05:19;;;;;;;10.90;4.80;;;;;15.62;97085.80;;;;110595;1254;41318;-71
2022/04/06 08:07:50;;;;;;;11.90;5.30;;;;;15.56;97078.40;;;;110506;1253;41176;-72
2022/04/06 08:10:20;;;;;;;10.00;4.90;;;;;15.70;97084.40;;;;110772;1251;41140;-71
2022/04/06 08:12:49;;;;;;;10.90;5.30;;;;;15.62;97082.20;;;;110617;1251;41281;-70
2022/04/06 08:15:19;;;;;;;11.80;5.30;;;;;15.66;97085.80;;;;110755;1252;41686;-71
2022/04/06 08:17:49;;;;;;;11.30;4.90;;;;;15.60;97088.20;;;;110740;1251;41147;-72
2022/04/06 08:20:18;;;;;;;10.20;4.30;;;;;15.72;97087.20;;;;110724;1251;41157;-72
2022/04/06 08:22:50;;;;;;;10.10;4.60;;;;;15.90;97088.20;;;;110665;1253;41177;-71
2022/04/06 08:25:19;;;;;;;10.70;4.80;;;;;16.20;97091.80;;;;110664;1253;41559;-72
2022/04/06 08:28:07;;;;;;;10.10;4.50;;;;;16.24;97086.40;;;;110716;1251;41144;-71
2022/04/06 08:30:41;;;;;;;8.80;3.80;;;;;16.28;97083.60;;;;110760;1253;41359;-73
2022/04/06 08:33:11;;;;;;;12.10;5.70;;;;;16.44;97082.20;;;;110620;1254;41320;-73
2022/04/06 08:35:41;;;;;;;9.70;4.40;;;;;16.66;97081.20;;;;110525;1254;41164;-71
2022/04/06 08:38:15;;;;;;;11.40;4.20;;;;;16.74;97083.80;;;;110626;1253;41605;-72
2022/04/06 08:40:44;;;;;;;11.00;4.80;;;;;16.80;97078.20;;;;110687;1251;41931;-72
2022/04/06 08:43:15;;;;;;;10.90;4.90;;;;;17.00;97082.20;;;;110589;1254;41141;-72
2022/04/06 08:45:44;;;;;;;9.50;4.20;;;;;17.20;97074.80;;;;110679;1253;40934;-71
2022/04/06 08:48:13;;;;;;;11.20;4.10;;;;;17.30;97074.80;;;;110667;1253;41145;-73
2022/04/06 08:50:45;;;;;;;10.20;3.80;;;;;17.40;97074.80;;;;110715;1252;42516;-72
2022/04/06 08:53:14;;;;;;;10.20;4.10;;;;;17.74;97068.80;;;;110716;1250;41156;-73
2022/04/06 08:55:43;;;;;;;9.90;3.90;;;;;18.10;97063.20;;;;110651;1253;43130;-71
2022/04/06 08:58:12;;;;;;;8.60;3.80;;;;;18.30;97061.00;;;;110648;1253;41421;-71
2022/04/06 09:00:41;;;;;;;12.30;4.40;;;;;18.30;97056.20;;;;110565;1254;41150;-71
2022/04/06 09:03:12;;;;;;;9.50;4.20;;;;;18.38;97057.00;;;;110713;1253;41178;-71
2022/04/06 09:05:41;;;;;;;9.50;4.10;;;;;18.40;97056.00;;;;110675;1253;42234;-72
2022/04/06 09:08:09;;;;;;;10.50;4.00;;;;;18.56;97058.20;;;;110723;1251;41625;-72
2022/04/06 09:10:41;;;;;;;9.90;3.80;;;;;18.70;97060.00;;;;110587;1254;41192;-72
2022/04/06 09:13:20;;;;;;;10.60;3.10;;;;;19.00;97054.80;;;;110651;1254;41177;-73
2022/04/06 09:15:53;;;;;;;;;;;;;19.54;97053.60;;;;110611;1254;41497;-70
2022/04/06 09:18:33;;;;;;;8.80;2.60;;;;;20.00;97055.00;;;;110596;1254;41193;-70
2022/04/06 09:21:03;;;;;;;7.30;2.90;;;;;20.50;97047.20;;;;110626;1253;41700;-70
2022/04/06 09:23:33;;;;;;;5.00;2.20;;;;;20.80;97049.80;;;;110652;1251;42132;-69
2022/04/06 09:26:06;;;;;;;5.00;2.20;;;;;20.70;97044.20;;;;110653;1250;41158;-71
2022/04/06 09:28:42;;;;;;;6.80;2.40;;;;;20.40;97051.60;;;;110670;1253;41154;-71
2022/04/06 09:31:19;;;;;;;6.40;2.50;;;;;20.24;97042.60;;;;110651;1254;41272;-70
2022/04/06 09:33:59;;;;;;;6.00;2.60;;;;;20.40;97038.00;;;;110524;1254;41317;-72
2022/04/06 09:36:29;;;;;;;5.30;2.30;;;;;20.48;97038.00;;;;110856;1251;41354;-69
2022/04/06 09:38:59;;;;;;;6.80;2.50;;;;;20.50;97039.40;;;;110655;1251;41269;-70
2022/04/06 09:41:30;;;;;;;6.40;2.50;;;;;20.68;97034.60;;;;110700;1253;41264;-71
2022/04/06 09:47:38;;;;;;;5.20;2.30;;;;;20.88;97039.00;;;;110727;1251;41145;-71
2022/04/06 09:47:39;;;;;;;6.20;2.20;;;;;21.10;97033.40;;;;110733;1251;42610;-70
2022/04/06 09:50:19;;;;;;;7.80;2.70;;;;;21.82;97030.20;;;;110260;1259;41279;-71
2022/04/06 09:52:51;;;;;;;6.20;2.10;;;;;23.02;97025.80;;;;110229;1259;42123;-70
2022/04/06 09:55:21;;;;;;;5.90;2.40;;;;;24.08;97020.00;;;;110186;1260;41724;-71
2022/04/06 09:57:52;;;;;;;6.60;2.40;;;;;25.46;97008.40;;;;110221;1260;41140;-72
2022/04/06 10:00:22;;;;;;;;;;;;;26.74;97014.00;;;;110229;1260;41262;-71
2022/04/06 10:02:57;;;;;;;6.80;2.20;;;;;27.20;97013.00;;;;110252;1257;41243;-70
2022/04/06 10:05:28;;;;;;;6.20;2.00;;;;;26.90;97003.40;;;;110177;1260;42030;-71
2022/04/06 10:08:04;;;;;;;5.30;2.00;;;;;26.60;96996.60;;;;110088;1260;41151;-71
2022/04/06 10:10:35;;;;;;;7.20;2.20;;;;;27.52;96989.40;;;;110181;1260;41224;-70
2022/04/06 10:13:05;;;;;;;6.40;2.30;;;;;29.04;96983.00;;;;110149;1260;41976;-71
2022/04/06 10:15:54;;;;;;;7.60;2.10;;;;;29.84;96984.60;;;;110100;1260;42741;-70
2022/04/06 10:18:25;;;;;;;5.60;1.90;;;;;29.60;96982.60;;;;110130;1260;41914;-70
2022/04/06 10:21:00;;;;;;;6.00;2.00;;;;;29.14;96984.80;;;;110033;1259;41913;-72
2022/04/06 10:23:35;;;;;;;4.80;1.80;;;;;27.66;96975.40;;;;110167;1260;42048;-70
2022/04/06 10:26:19;;;;;;;4.20;1.80;;;;;27.58;96987.20;;;;110457;1251;42412;-71
2022/04/06 10:28:51;;;;;;;7.00;2.00;;;;;26.70;96988.00;;;;110703;1251;41271;-72
2022/04/06 10:31:24;;;;;;;4.10;1.60;;;;;26.76;96978.60;;;;110536;1252;41946;-72
2022/04/06 10:34:23;;;;;;;4.70;1.60;;;;;27.04;96971.80;;;;110689;1253;41843;-71
2022/04/06 10:37:08;;;;;;;2.20;1.30;;;;;28.86;96977.80;;;;110419;1254;41156;-71
2022/04/06 10:39:53;;;;;;;3.80;1.40;;;;;29.80;96975.00;;;;110634;1252;41367;-72
2022/04/06 10:42:41;;;;;;;4.30;1.70;;;;;31.52;96965.20;;;;110647;1252;41168;-71
2022/04/06 10:45:30;;;;;;;4.00;1.70;;;;;32.30;96958.80;;;;110571;1254;41161;-71
2022/04/06 10:48:10;;;;;;;3.50;1.50;;;;;32.36;96966.00;;;;110614;1254;41175;-72
2022/04/06 10:50:43;;;;;;;2.90;1.40;;;;;32.00;96958.80;;;;110326;1254;41138;-72
2022/04/06 10:53:18;;;;;;;2.20;1.40;;;;;32.58;96961.60;;;;110656;1254;41174;-72
2022/04/06 10:56:06;;;;;;;3.20;1.60;;;;;33.46;96953.60;;;;110653;1252;41759;-71
2022/04/06 10:58:55;;;;;;;3.70;1.70;;;;;34.12;96955.00;;;;110677;1252;41184;-72
2022/04/06 11:01:33;;;;;;;3.90;1.50;;;;;34.18;96951.80;;;;110668;1254;41589;-72
2022/04/06 11:04:15;;;;;;;3.80;1.50;;;;;34.78;96956.40;;;;110595;1254;41744;-73
2022/04/06 11:06:44;;;;;;;3.40;1.60;;;;;35.38;96951.40;;;;110536;1254;41198;-72
2022/04/06 11:12:28;;;;;;;2.00;1.30;;;;;33.38;96976.60;;;;110513;1253;41741;-71
2022/04/06 11:15:00;;;;;;;1.90;1.30;;;;;32.94;96980.40;;;;110657;1253;41904;-71
2022/04/06 11:17:34;;;;;;;2.70;1.40;;;;;31.72;96978.00;;;;110674;1251;42598;-71
2022/04/06 11:20:17;;;;;;;3.00;1.30;;;;;30.52;96978.60;;;;110642;1252;41447;-71
2022/04/06 11:22:46;;;;;;;5.10;1.30;;;;;28.86;96978.40;;;;110668;1252;42568;-71
2022/04/06 11:25:22;;;;;;;2.60;1.40;;;;;28.00;96984.40;;;;110681;1253;41155;-70
2022/04/06 11:27:54;;;;;;;3.80;1.50;;;;;27.40;96986.20;;;;110656;1254;41257;-71
2022/04/06 11:30:26;;;;;;;3.30;1.30;;;;;26.90;96977.60;;;;110665;1253;41148;-72
2022/04/06 11:33:00;;;;;;;2.80;1.30;;;;;26.58;96980.40;;;;110674;1252;41939;-71
2022/04/06 11:35:34;;;;;;;6.30;1.70;;;;;26.20;96974.00;;;;110579;1254;41388;-71
2022/04/06 11:38:04;;;;;;;2.70;1.50;;;;;25.68;96969.60;;;;110668;1252;41164;-70
2022/04/06 11:40:34;;;;;;;3.20;1.50;;;;;25.12;96967.20;;;;110585;1254;41964;-70
2022/04/06 11:43:07;;;;;;;2.20;1.30;;;;;25.00;96963.80;;;;110635;1254;41366;-70
2022/04/06 11:45:40;;;;;;;4.10;1.60;;;;;25.04;96956.80;;;;110661;1252;41382;-71
2022/04/06 11:48:12;;;;;;;1.90;1.30;;;;;24.76;96964.00;;;;110697;1251;41372;-72
2022/04/06 11:50:42;;;;;;;3.00;1.50;;;;;24.44;96951.80;;;;110681;1252;41156;-72
2022/04/06 11:53:17;;;;;;;1.80;1.40;;;;;24.80;96954.00;;;;110592;1254;42469;-71
2022/04/06 11:55:48;;;;;;;4.80;1.70;;;;;25.10;96948.20;;;;110397;1254;41481;-72
2022/04/06 11:58:39;;;;;;;4.20;1.70;;;;;24.62;96958.00;;;;110486;1254;41150;-72
2022/04/06 12:01:16;;;;;;;5.30;1.80;;;;;24.44;96955.60;;;;110692;1252;41216;-72
2022/04/06 12:03:46;;;;;;;5.40;2.20;;;;;24.28;96956.00;;;;110612;1253;41411;-69
2022/04/06 12:06:16;;;;;;;4.40;1.90;;;;;23.62;96955.00;;;;110567;1254;41165;-70
2022/04/06 12:08:46;;;;;;;3.70;1.60;;;;;22.44;96957.80;;;;110612;1251;41289;-71
2022/04/06 12:11:19;;;;;;;2.50;1.40;;;;;22.20;96962.80;;;;110569;1252;41209;-70
2022/04/06 12:13:48;;;;;;;4.20;1.60;;;;;22.28;96959.40;;;;110646;1251;41138;-70
2022/04/06 12:16:22;;;;;;;3.20;1.60;;;;;22.40;96948.00;;;;110607;1253;41163;-70
2022/04/06 12:18:51;;;;;;;4.40;1.90;;;;;22.50;96947.40;;;;110656;1252;41615;-71
2022/04/06 12:21:25;;;;;;;2.90;1.60;;;;;22.50;96946.40;;;;110699;1251;41819;-71
2022/04/06 12:23:55;;;;;;;4.50;1.80;;;;;22.40;96934.20;;;;110565;1254;41137;-70
2022/04/06 12:26:25;;;;;;;4.50;1.80;;;;;22.20;96933.80;;;;110703;1251;41602;-71
2022/04/06 12:28:59;;;;;;;4.90;1.80;;;;;22.00;96927.00;;;;110650;1252;41640;-71
2022/04/06 12:31:35;;;;;;;3.30;1.60;;;;;22.02;96923.40;;;;110729;1251;41175;-71
2022/04/06 12:34:04;;;;;;;4.40;1.60;;;;;22.10;96920.00;;;;110800;1251;41169;-70
2022/04/06 12:36:33;;;;;;;4.40;1.70;;;;;22.10;96917.40;;;;110670;1253;41404;-72
2022/04/06 12:39:14;;;;;;;1.90;1.50;;;;;22.10;96921.60;;;;110661;1252;41286;-71